createdAt,value
2022-10-22T00:12:57.348Z,36.70
2022-10-22T00:28:00.749Z,31.20
2022-10-22T00:43:03.747Z,29.00
2022-10-22T00:58:07.161Z,28.30
2022-10-22T01:13:25.872Z,34.70
2022-10-22T01:28:58.328Z,30.50
2022-10-22T01:44:01.292Z,33.30
2022-10-22T01:59:13.734Z,33.50
2022-10-22T02:14:19.467Z,32.80
2022-10-22T02:29:28.966Z,33.80
2022-10-22T02:44:31.991Z,43.00
2022-10-22T02:59:35.449Z,35.80
2022-10-22T03:14:38.622Z,40.90
2022-10-22T03:29:42.208Z,30.70
2022-10-22T03:44:45.512Z,36.10
2022-10-22T03:59:49.215Z,38.10
2022-10-22T04:14:52.367Z,38.30
2022-10-22T04:29:55.253Z,36.90
2022-10-22T04:44:58.342Z,54.40
2022-10-22T05:00:01.794Z,36.60
2022-10-22T05:15:05.455Z,36.00
2022-10-22T05:30:08.738Z,33.00
2022-10-22T05:45:12.464Z,36.30
2022-10-22T06:00:16.735Z,29.60
2022-10-22T06:15:20.675Z,33.20
2022-10-22T06:30:24.209Z,28.10
2022-10-22T06:45:27.516Z,53.10
2022-10-22T07:00:30.557Z,39.00
2022-10-22T07:15:33.765Z,73.70
2022-10-22T07:30:38.152Z,51.60
2022-10-22T07:45:41.977Z,40.40
2022-10-22T08:00:45.920Z,55.30
2022-10-22T08:15:50.509Z,60.90
2022-10-22T08:30:56.611Z,61.80
2022-10-22T08:46:12.255Z,87.80
2022-10-22T09:01:21.124Z,71.10
2022-10-22T09:16:46.538Z,72.80
2022-10-22T09:31:50.775Z,63.10
2022-10-22T09:46:53.990Z,65.50
2022-10-22T10:02:20.004Z,74.80
2022-10-22T10:17:48.850Z,90.10
2022-10-22T10:33:22.629Z,72.50
2022-10-22T10:48:55.551Z,61.00
2022-10-22T11:04:33.449Z,92.00
2022-10-22T11:19:51.502Z,68.90
2022-10-22T11:34:59.939Z,62.70
2022-10-22T11:50:18.450Z,67.90
2022-10-22T12:05:24.335Z,65.60
2022-10-22T12:20:28.949Z,73.20
2022-10-22T12:35:43.383Z,127.70
2022-10-22T12:50:51.142Z,102.50
2022-10-22T13:05:54.800Z,103.90
2022-10-22T13:21:03.940Z,107.30
2022-10-22T13:36:13.098Z,88.00
2022-10-22T14:06:28.790Z,80.20
2022-10-22T14:21:36.826Z,84.60
2022-10-22T14:36:40.099Z,83.90
2022-10-22T14:51:43.193Z,87.70
2022-10-22T15:06:46.689Z,147.80
2022-10-22T15:21:50.534Z,252.80
2022-10-22T15:36:56.150Z,207.70
2022-10-22T15:51:59.108Z,108.60
2022-10-22T16:07:02.404Z,221.70
2022-10-22T16:22:06.149Z,133.80
2022-10-22T16:37:10.627Z,136.30
2022-10-22T16:52:14.349Z,149.60
2022-10-22T17:07:17.725Z,90.90
2022-10-22T17:22:21.424Z,135.10
2022-10-22T17:37:24.821Z,106.40
2022-10-22T17:52:28.366Z,158.60
2022-10-22T18:07:31.549Z,100.90
2022-10-22T18:22:36.782Z,122.40
2022-10-22T18:37:40.432Z,107.30
2022-10-22T18:52:44.006Z,102.60
2022-10-22T19:07:47.567Z,77.40
2022-10-22T19:22:51.200Z,101.50
2022-10-22T19:37:54.649Z,80.90
2022-10-22T19:52:57.808Z,72.50
2022-10-22T20:08:01.129Z,73.80
2022-10-22T20:23:04.545Z,69.20
2022-10-22T20:38:12.373Z,55.50
2022-10-22T20:53:16.926Z,61.80
2022-10-22T21:08:20.167Z,61.50
2022-10-22T21:23:23.650Z,58.50
2022-10-22T21:38:26.832Z,57.80
2022-10-22T21:53:29.939Z,58.70
2022-10-22T22:08:33.494Z,68.70
2022-10-22T22:23:43.848Z,60.70
2022-10-22T22:38:46.887Z,58.90
2022-10-22T22:53:50.161Z,58.60
2022-10-22T23:08:54.330Z,60.70
2022-10-22T23:24:00.202Z,52.00
2022-10-22T23:39:10.046Z,45.70
2022-10-22T23:54:15.484Z,55.10
